Time;durP1;ratioP1;P1;durP2;ratioP2;P2;SDS_P1;SDS_P2;PMS_P1;PMS_P2;Temp;Humidity;BMP_temperature;BMP_pressure;BME280_temperature;BME280_humidity;BME280_pressure;Samples;Min_cycle;Max_cycle;Signal;HPM_P1;HPM_P2
2022/05/25 00:01:32;;;;;;;6.20;2.70;;;;;12.60;97212.40;;;;110974;1250;41164;-73
2022/05/25 00:04:03;;;;;;;9.30;3.10;;;;;12.60;97208.80;;;;110968;1251;41146;-69
2022/05/25 00:06:34;;;;;;;5.70;2.50;;;;;12.60;97214.40;;;;110950;1251;41134;-69
2022/05/25 00:09:04;;;;;;;11.10;3.90;;;;;12.60;97222.80;;;;110925;1250;41268;-71
2022/05/25 00:11:34;;;;;;;9.40;4.30;;;;;12.60;97227.40;;;;110961;1250;42364;-70
2022/05/25 00:14:06;;;;;;;9.70;4.30;;;;;12.50;97227.20;;;;110750;1250;41133;-70
2022/05/25 00:16:36;;;;;;;9.00;3.30;;;;;12.42;97222.40;;;;110666;1250;41270;-70
2022/05/25 00:21:55;;;;;;;10.10;3.30;;;;;12.40;97213.20;;;;110898;1250;41379;-69
2022/05/25 00:24:24;;;;;;;6.70;2.90;;;;;12.30;97220.60;;;;110782;1250;41146;-68
2022/05/25 00:26:55;;;;;;;7.80;3.20;;;;;12.30;97215.60;;;;110916;1251;40746;-68
2022/05/25 00:29:24;;;;;;;7.70;3.30;;;;;12.30;97211.80;;;;110814;1251;41240;-69
2022/05/25 00:31:56;;;;;;;8.20;3.00;;;;;12.28;97207.20;;;;110751;1250;41598;-69
2022/05/25 00:34:26;;;;;;;9.10;3.40;;;;;12.20;97207.00;;;;110986;1250;41924;-70
2022/05/25 00:36:56;;;;;;;8.50;3.00;;;;;12.20;97216.00;;;;110920;1250;41265;-69
2022/05/25 00:39:27;;;;;;;7.60;3.00;;;;;12.30;97218.80;;;;110899;1250;41140;-70
2022/05/25 00:41:57;;;;;;;6.70;3.00;;;;;12.30;97215.60;;;;110908;1250;41251;-67
2022/05/25 00:44:26;;;;;;;7.00;2.80;;;;;12.30;97214.20;;;;110704;1253;41725;-70
2022/05/25 00:46:56;;;;;;;7.40;2.80;;;;;12.30;97216.20;;;;111022;1251;41665;-68
2022/05/25 00:49:29;;;;;;;6.00;2.70;;;;;12.30;97213.00;;;;110775;1251;41133;-68
2022/05/25 00:52:13;;;;;;;7.80;2.80;;;;;12.36;97212.60;;;;110729;1253;41712;-69
2022/05/25 00:54:52;;;;;;;8.80;2.90;;;;;12.40;97209.00;;;;110763;1251;41166;-69
2022/05/25 00:57:24;;;;;;;6.30;2.80;;;;;12.40;97199.00;;;;111017;1251;41134;-75
2022/05/25 01:00:20;;;;;;;5.70;2.70;;;;;12.40;97200.40;;;;110765;1253;41755;-70
2022/05/25 01:02:57;;;;;;;6.40;2.60;;;;;12.40;97193.20;;;;111074;1250;41732;-69
2022/05/25 01:05:58;;;;;;;5.30;2.40;;;;;12.40;97197.40;;;;110830;1250;40921;-69
2022/05/25 01:08:41;;;;;;;7.50;2.90;;;;;12.40;97200.20;;;;110730;1251;41298;-69
2022/05/25 01:11:24;;;;;;;7.80;3.30;;;;;12.38;97197.60;;;;110780;1250;42041;-71
2022/05/25 01:14:15;;;;;;;9.90;3.40;;;;;12.34;97199.80;;;;110964;1250;41946;-68
2022/05/25 01:16:49;;;;;;;6.50;2.70;;;;;12.30;97203.60;;;;110954;1250;41268;-69
2022/05/25 01:19:42;;;;;;;6.70;3.00;;;;;12.30;97202.40;;;;110926;1251;41214;-69
2022/05/25 01:22:20;;;;;;;;;;;;;12.30;97205.80;;;;110920;1251;41638;-69
2022/05/25 01:25:19;;;;;;;5.90;2.70;;;;;12.30;97209.60;;;;110909;1251;41152;-69
2022/05/25 01:27:53;;;;;;;6.10;2.70;;;;;12.30;97213.20;;;;110937;1250;41257;-69
2022/05/25 01:30:27;;;;;;;7.20;2.50;;;;;12.30;97209.00;;;;110841;1250;41645;-68
2022/05/25 01:33:04;;;;;;;6.60;2.90;;;;;12.30;97205.20;;;;111087;1250;41952;-70
2022/05/25 01:35:56;;;;;;;4.80;2.50;;;;;12.30;97207.80;;;;111044;1250;41139;-68
2022/05/25 01:38:36;;;;;;;5.80;2.50;;;;;12.28;97213.00;;;;111009;1250;41591;-72
2022/05/25 01:41:25;;;;;;;6.00;2.40;;;;;12.28;97217.20;;;;110763;1250;41337;-70
2022/05/25 01:44:04;;;;;;;6.50;2.70;;;;;12.24;97211.20;;;;110996;1250;41621;-74
2022/05/25 01:46:40;;;;;;;7.60;2.80;;;;;12.26;97210.40;;;;110816;1250;41164;-68
2022/05/25 01:49:16;;;;;;;7.00;2.70;;;;;12.20;97207.80;;;;110968;1250;41178;-69
2022/05/25 01:52:01;;;;;;;6.70;2.80;;;;;12.20;97205.80;;;;110816;1251;42630;-74
2022/05/25 01:54:35;;;;;;;5.00;2.20;;;;;12.20;97210.00;;;;110743;1252;41179;-73
2022/05/25 01:57:10;;;;;;;7.40;2.70;;;;;12.20;97208.00;;;;110843;1251;41270;-69
2022/05/25 01:59:45;;;;;;;6.30;2.70;;;;;12.20;97208.00;;;;110851;1252;41169;-69
2022/05/25 02:05:11;;;;;;;6.60;2.80;;;;;12.20;97205.00;;;;110994;1250;41630;-73
2022/05/25 02:08:10;;;;;;;6.70;2.70;;;;;12.20;97202.80;;;;110859;1251;41616;-69
2022/05/25 02:10:49;;;;;;;6.70;2.90;;;;;12.10;97212.80;;;;110717;1253;41045;-69
2022/05/25 02:13:35;;;;;;;6.00;2.60;;;;;12.10;97221.20;;;;110948;1250;41146;-68
2022/05/25 02:16:21;;;;;;;6.60;2.90;;;;;12.10;97225.40;;;;111000;1250;40914;-68
2022/05/25 02:19:16;;;;;;;13.20;3.00;;;;;12.10;97223.20;;;;110976;1251;41321;-69
2022/05/25 02:21:57;;;;;;;7.00;3.00;;;;;12.20;97219.00;;;;110976;1250;41948;-74
2022/05/25 02:24:39;;;;;;;5.80;2.50;;;;;12.20;97221.20;;;;111037;1250;41153;-69
2022/05/25 02:28:01;;;;;;;5.40;2.60;;;;;12.20;97219.60;;;;110930;1250;41563;-69
2022/05/25 02:30:36;;;;;;;6.80;3.00;;;;;12.20;97218.60;;;;110851;1251;42143;-69
2022/05/25 02:33:14;;;;;;;6.20;2.60;;;;;12.20;97219.80;;;;110814;1251;41185;-69
2022/05/25 02:35:46;;;;;;;7.70;3.10;;;;;12.20;97223.20;;;;110956;1250;41140;-68
2022/05/25 02:38:18;;;;;;;8.50;3.10;;;;;12.20;97229.80;;;;110951;1250;41385;-69
2022/05/25 02:40:47;;;;;;;8.10;3.50;;;;;12.20;97235.40;;;;110707;1251;42043;-68
2022/05/25 02:43:19;;;;;;;6.60;3.10;;;;;12.16;97239.00;;;;110809;1252;41623;-68
2022/05/25 02:45:48;;;;;;;7.20;3.10;;;;;12.10;97244.60;;;;110801;1252;41146;-69
2022/05/25 02:48:17;;;;;;;7.30;3.00;;;;;12.00;97248.40;;;;110878;1252;41277;-70
2022/05/25 02:50:47;;;;;;;7.40;3.00;;;;;11.98;97253.60;;;;110935;1250;41604;-69
2022/05/25 02:53:19;;;;;;;7.00;2.70;;;;;11.90;97248.40;;;;110842;1250;41154;-69
2022/05/25 02:55:49;;;;;;;5.50;2.50;;;;;11.90;97248.00;;;;110887;1250;41614;-69
2022/05/25 02:58:19;;;;;;;6.90;2.80;;;;;11.90;97247.80;;;;110878;1250;41317;-69
2022/05/25 03:00:48;;;;;;;6.40;2.60;;;;;11.90;97247.40;;;;111002;1250;42548;-68
2022/05/25 03:03:18;;;;;;;7.10;3.10;;;;;11.90;97241.80;;;;110875;1250;41985;-69
2022/05/25 03:05:49;;;;;;;6.30;2.70;;;;;11.96;97237.00;;;;110943;1251;41242;-67
2022/05/25 03:08:19;;;;;;;5.80;2.40;;;;;11.90;97234.40;;;;110904;1252;41134;-73
2022/05/25 03:10:48;;;;;;;7.30;2.50;;;;;11.92;97230.60;;;;110918;1250;41181;-70
2022/05/25 03:13:18;;;;;;;6.10;2.40;;;;;12.00;97231.40;;;;110744;1253;42554;-70
2022/05/25 03:15:47;;;;;;;6.80;2.50;;;;;12.00;97228.00;;;;110832;1252;41714;-71
2022/05/25 03:18:16;;;;;;;5.60;2.60;;;;;12.04;97233.80;;;;110822;1250;41647;-69
2022/05/25 03:20:49;;;;;;;5.70;2.60;;;;;12.10;97237.00;;;;110940;1250;41158;-69
2022/05/25 03:23:18;;;;;;;7.40;3.00;;;;;12.10;97232.20;;;;110704;1253;41949;-76
2022/05/25 03:25:48;;;;;;;8.00;3.30;;;;;12.10;97231.60;;;;110726;1253;41677;-75
2022/05/25 03:28:19;;;;;;;7.50;3.10;;;;;12.10;97234.40;;;;110670;1252;41621;-70
2022/05/25 03:30:48;;;;;;;15.70;4.00;;;;;12.10;97242.20;;;;110663;1253;41164;-72
2022/05/25 03:33:18;;;;;;;10.10;3.90;;;;;12.10;97247.80;;;;110713;1253;41730;-70
2022/05/25 03:35:47;;;;;;;9.70;3.80;;;;;12.10;97247.20;;;;110885;1252;41539;-71
2022/05/25 03:38:16;;;;;;;11.00;4.20;;;;;12.10;97255.40;;;;110859;1250;41173;-68
2022/05/25 03:40:46;;;;;;;10.40;4.20;;;;;12.10;97258.80;;;;110829;1250;40725;-69
2022/05/25 03:43:18;;;;;;;10.10;4.00;;;;;12.10;97259.00;;;;110673;1251;41662;-69
2022/05/25 03:45:48;;;;;;;10.00;4.40;;;;;12.24;97267.00;;;;110583;1254;42691;-75
2022/05/25 03:48:17;;;;;;;8.50;4.10;;;;;12.30;97266.00;;;;110782;1252;42224;-68
2022/05/25 03:50:46;;;;;;;10.80;4.20;;;;;12.40;97262.20;;;;110782;1252;42070;-71
2022/05/25 03:53:17;;;;;;;7.70;3.50;;;;;12.50;97263.60;;;;110707;1253;41642;-74
2022/05/25 03:55:47;;;;;;;;;;;;;12.66;97259.40;;;;110888;1252;41011;-72
2022/05/25 03:58:17;;;;;;;11.60;4.60;;;;;12.70;97259.80;;;;110883;1252;41259;-70
2022/05/25 04:00:46;;;;;;;10.70;4.10;;;;;12.80;97263.00;;;;110766;1253;41904;-70
2022/05/25 04:03:22;;;;;;;8.70;3.70;;;;;12.86;97263.00;;;;110800;1252;41650;-70
2022/05/25 04:05:52;;;;;;;11.10;3.90;;;;;13.04;97267.60;;;;110777;1250;41310;-70
2022/05/25 04:08:21;;;;;;;8.00;3.40;;;;;13.44;97272.00;;;;110841;1250;41410;-69
2022/05/25 04:10:51;;;;;;;13.00;3.70;;;;;14.44;97248.80;;;;110892;1252;41335;-71
2022/05/25 04:13:22;;;;;;;8.70;4.10;;;;;15.40;97253.80;;;;110854;1252;41189;-70
2022/05/25 04:15:51;;;;;;;11.60;4.60;;;;;15.90;97249.80;;;;110766;1252;41757;-68
2022/05/25 04:18:20;;;;;;;10.00;4.80;;;;;16.54;97232.40;;;;110844;1250;41267;-68
2022/05/25 04:20:49;;;;;;;8.20;3.70;;;;;17.16;97235.40;;;;110925;1250;41133;-69
2022/05/25 04:23:20;;;;;;;14.00;4.10;;;;;17.82;97229.60;;;;110677;1253;41898;-70
2022/05/25 04:25:50;;;;;;;;;;;;;18.52;97226.60;;;;110699;1252;41153;-71
2022/05/25 04:28:20;;;;;;;8.40;3.40;;;;;19.24;97219.60;;;;110867;1251;42560;-69
2022/05/25 04:30:49;;;;;;;8.60;3.70;;;;;19.88;97214.00;;;;110755;1253;41721;-70
2022/05/25 04:33:18;;;;;;;8.00;3.90;;;;;20.50;97210.00;;;;110649;1253;41414;-69
2022/05/25 04:35:47;;;;;;;9.30;3.30;;;;;20.90;97208.00;;;;110705;1253;41164;-69
2022/05/25 04:38:16;;;;;;;9.70;3.40;;;;;21.30;97208.80;;;;110880;1250;42183;-69
2022/05/25 04:40:45;;;;;;;9.40;2.70;;;;;21.60;97197.60;;;;110903;1251;41183;-68
2022/05/25 04:43:17;;;;;;;12.90;3.70;;;;;21.92;97202.00;;;;110867;1251;41152;-68
2022/05/25 04:45:49;;;;;;;16.30;4.10;;;;;21.90;97202.00;;;;110879;1250;41267;-71
2022/05/25 04:48:26;;;;;;;9.90;3.30;;;;;21.90;97200.20;;;;110833;1252;42218;-69
2022/05/25 04:50:57;;;;;;;6.70;2.80;;;;;22.24;97201.40;;;;110669;1253;41314;-69
2022/05/25 04:53:26;;;;;;;7.40;3.00;;;;;22.82;97199.20;;;;110804;1250;42196;-68
2022/05/25 04:58:45;;;;;;;6.90;2.80;;;;;23.58;97199.00;;;;110901;1250;41472;-69
2022/05/25 05:01:19;;;;;;;6.50;2.60;;;;;24.08;97201.60;;;;110860;1253;41787;-70
2022/05/25 05:03:49;;;;;;;7.80;3.30;;;;;24.46;97207.60;;;;110691;1253;41938;-70
2022/05/25 05:06:18;;;;;;;14.70;3.40;;;;;24.54;97216.80;;;;110760;1251;41481;-71
2022/05/25 05:08:47;;;;;;;7.90;2.90;;;;;24.50;97226.40;;;;110868;1252;40925;-70
2022/05/25 05:11:18;;;;;;;7.70;3.10;;;;;24.70;97223.40;;;;110872;1253;41496;-70
2022/05/25 05:13:47;;;;;;;;;;;;;24.70;97226.20;;;;110730;1253;41146;-72
2022/05/25 05:16:16;;;;;;;10.50;3.30;;;;;24.90;97223.80;;;;110878;1251;41162;-73
2022/05/25 05:18:46;;;;;;;10.60;3.10;;;;;24.80;97224.80;;;;110926;1250;42234;-71
2022/05/25 05:21:47;;;;;;;8.90;2.60;;;;;24.92;97230.20;;;;110567;1253;41646;-72
2022/05/25 05:24:16;;;;;;;5.70;2.50;;;;;25.18;97237.40;;;;110639;1253;41153;-69
2022/05/25 05:26:45;;;;;;;10.10;2.70;;;;;25.16;97241.00;;;;110634;1253;40954;-69
2022/05/25 05:29:14;;;;;;;6.90;2.60;;;;;25.06;97247.60;;;;110641;1251;42250;-70
2022/05/25 05:31:43;;;;;;;7.00;2.60;;;;;24.50;97259.60;;;;110823;1251;41605;-70
2022/05/25 05:34:12;;;;;;;12.90;2.70;;;;;24.02;97266.60;;;;110946;1250;41414;-74
2022/05/25 05:36:48;;;;;;;6.10;2.40;;;;;23.54;97269.80;;;;110872;1251;42386;-74
2022/05/25 05:39:18;;;;;;;8.40;2.30;;;;;23.56;97272.20;;;;110730;1250;41267;-69
2022/05/25 05:41:59;;;;;;;7.50;2.90;;;;;23.90;97269.60;;;;110674;1252;42554;-76
2022/05/25 05:44:33;;;;;;;6.00;2.40;;;;;24.56;97271.00;;;;110728;1251;41273;-80
2022/05/25 05:47:06;;;;;;;5.70;2.30;;;;;25.00;97266.00;;;;110665;1253;41370;-80
2022/05/25 05:49:37;;;;;;;9.50;2.70;;;;;25.30;97267.00;;;;110936;1250;41157;-78
2022/05/25 05:52:07;;;;;;;8.40;2.60;;;;;25.40;97271.60;;;;110942;1250;41258;-73
2022/05/25 05:54:37;;;;;;;6.20;2.20;;;;;25.70;97277.40;;;;110840;1250;41156;-70
2022/05/25 05:57:06;;;;;;;;;;;;;26.10;97278.20;;;;110868;1250;41119;-70
2022/05/25 05:59:38;;;;;;;8.10;2.80;;;;;26.00;97285.00;;;;110788;1252;41776;-71
2022/05/25 06:02:07;;;;;;;12.80;2.40;;;;;25.56;97284.80;;;;110928;1250;41292;-71
2022/05/25 06:04:37;;;;;;;6.00;2.40;;;;;25.68;97287.40;;;;110738;1251;41196;-71
2022/05/25 06:07:05;;;;;;;6.50;2.50;;;;;25.88;97286.00;;;;110749;1252;41229;-71
2022/05/25 06:09:35;;;;;;;11.70;3.00;;;;;25.78;97284.80;;;;110920;1250;41156;-69
2022/05/25 06:12:04;;;;;;;6.80;2.20;;;;;26.02;97283.80;;;;110906;1250;41141;-72
2022/05/25 06:14:33;;;;;;;5.60;2.20;;;;;26.10;97287.40;;;;110722;1251;41161;-74
2022/05/25 06:19:49;;;;;;;4.40;2.10;;;;;27.10;97284.60;;;;110795;1251;41133;-78
2022/05/25 06:22:19;;;;;;;11.40;2.90;;;;;27.20;97283.00;;;;110966;1250;41255;-77
2022/05/25 06:24:50;;;;;;;5.10;2.10;;;;;27.40;97288.60;;;;110673;1253;41229;-73
2022/05/25 06:27:20;;;;;;;5.80;2.30;;;;;27.40;97294.60;;;;110026;1252;741411;-72
2022/05/25 06:29:49;;;;;;;4.30;1.70;;;;;28.00;97291.80;;;;110686;1250;41730;-71
2022/05/25 06:32:22;;;;;;;4.10;1.90;;;;;28.50;97288.20;;;;110732;1250;41146;-74
2022/05/25 06:34:52;;;;;;;6.40;2.20;;;;;29.16;97286.00;;;;110735;1253;41146;-72
2022/05/25 06:37:23;;;;;;;4.80;1.90;;;;;29.32;97289.00;;;;110924;1251;42403;-72
2022/05/25 06:39:52;;;;;;;4.90;1.90;;;;;29.30;97290.80;;;;110698;1253;41274;-76
2022/05/25 06:42:22;;;;;;;5.70;1.80;;;;;29.40;97290.80;;;;110675;1253;41438;-78
2022/05/25 06:44:54;;;;;;;3.90;1.90;;;;;29.80;97293.20;;;;110669;1253;41527;-79
2022/05/25 06:47:24;;;;;;;12.40;2.50;;;;;30.38;97296.80;;;;110733;1253;41369;-76
2022/05/25 06:49:54;;;;;;;11.70;2.80;;;;;30.86;97298.60;;;;110954;1252;42122;-71
2022/05/25 06:52:23;;;;;;;4.70;2.10;;;;;31.26;97301.60;;;;110742;1250;41297;-68
2022/05/25 06:54:56;;;;;;;4.50;2.00;;;;;31.34;97293.40;;;;110551;1253;41158;-64
2022/05/25 06:57:26;;;;;;;4.70;1.70;;;;;31.60;97297.40;;;;110633;1253;41596;-63
2022/05/25 06:59:55;;;;;;;4.00;2.00;;;;;31.84;97301.00;;;;110389;1255;41133;-67
2022/05/25 07:02:25;;;;;;;4.60;2.20;;;;;31.62;97304.00;;;;110617;1253;41675;-66
2022/05/25 07:04:54;;;;;;;7.20;2.50;;;;;31.32;97313.00;;;;110604;1253;41542;-67
2022/05/25 07:07:24;;;;;;;7.90;2.00;;;;;29.68;97323.80;;;;110708;1251;41982;-61
2022/05/25 07:09:53;;;;;;;10.50;2.80;;;;;29.02;97329.80;;;;110578;1252;41146;-70
2022/05/25 07:12:22;;;;;;;5.10;2.30;;;;;27.58;97343.80;;;;110725;1252;42114;-68
2022/05/25 07:14:52;;;;;;;7.10;2.50;;;;;27.10;97348.40;;;;110587;1253;42546;-67
2022/05/25 07:17:21;;;;;;;9.40;2.90;;;;;26.96;97355.80;;;;110531;1253;41160;-59
2022/05/25 07:19:50;;;;;;;8.30;2.60;;;;;26.58;97360.00;;;;110484;1252;41605;-70
2022/05/25 07:22:20;;;;;;;7.40;2.70;;;;;26.34;97358.60;;;;110660;1250;41156;-61
2022/05/25 07:24:50;;;;;;;6.10;2.60;;;;;25.64;97363.20;;;;110531;1253;41981;-59
2022/05/25 07:27:19;;;;;;;6.50;2.50;;;;;25.50;97365.20;;;;110634;1252;41252;-66
2022/05/25 07:29:48;;;;;;;6.90;2.80;;;;;25.50;97357.40;;;;110651;1250;42517;-64
2022/05/25 07:32:18;;;;;;;7.70;2.60;;;;;25.60;97358.60;;;;110713;1250;41260;-64
2022/05/25 07:34:54;;;;;;;8.80;3.40;;;;;25.80;97367.60;;;;110740;1250;41299;-68
2022/05/25 07:37:34;;;;;;;9.80;2.90;;;;;25.10;97362.00;;;;110702;1252;41781;-64
2022/05/25 07:40:11;;;;;;;5.90;2.50;;;;;24.70;97359.60;;;;110750;1252;41146;-68
2022/05/25 07:42:43;;;;;;;7.10;2.60;;;;;24.88;97361.00;;;;110779;1250;41943;-65
2022/05/25 07:45:13;;;;;;;10.20;3.10;;;;;24.40;97359.00;;;;110633;1251;41267;-64
2022/05/25 07:47:42;;;;;;;9.50;2.90;;;;;24.30;97363.40;;;;110744;1250;41266;-67
2022/05/25 07:50:12;;;;;;;9.70;3.00;;;;;24.20;97362.20;;;;110738;1251;41284;-64
2022/05/25 07:52:41;;;;;;;9.50;3.30;;;;;24.02;97360.60;;;;110571;1250;41271;-62
2022/05/25 07:55:11;;;;;;;6.90;2.50;;;;;23.98;97360.20;;;;110564;1252;42552;-67
2022/05/25 07:57:41;;;;;;;7.80;2.60;;;;;23.90;97357.80;;;;110707;1252;41358;-63
2022/05/25 08:00:12;;;;;;;7.00;2.40;;;;;23.80;97356.60;;;;110909;1250;41155;-69
2022/05/25 08:05:49;;;;;;;7.70;2.80;;;;;23.82;97351.80;;;;110785;1250;41147;-68
2022/05/25 08:08:23;;;;;;;6.10;2.60;;;;;23.80;97347.80;;;;110689;1251;42027;-68
2022/05/25 08:11:07;;;;;;;9.20;3.10;;;;;23.70;97349.20;;;;110751;1250;41261;-73
2022/05/25 08:13:45;;;;;;;9.10;2.60;;;;;23.58;97354.40;;;;110757;1250;42375;-64
2022/05/25 08:16:15;;;;;;;5.60;2.40;;;;;23.78;97353.20;;;;110600;1253;41792;-68
2022/05/25 08:18:44;;;;;;;7.90;2.80;;;;;23.90;97351.40;;;;110832;1251;41219;-69
2022/05/25 08:21:14;;;;;;;7.80;2.70;;;;;24.16;97355.40;;;;110692;1253;41467;-64
2022/05/25 08:23:57;;;;;;;6.70;2.90;;;;;24.54;97347.60;;;;110742;1250;41251;-65
2022/05/25 08:26:26;;;;;;;6.40;2.60;;;;;24.80;97350.40;;;;110741;1250;42483;-68
2022/05/25 08:28:56;;;;;;;7.70;2.60;;;;;24.70;97350.80;;;;110648;1253;41255;-65
2022/05/25 08:31:26;;;;;;;9.10;2.60;;;;;24.70;97345.60;;;;110602;1253;41181;-65
2022/05/25 08:33:56;;;;;;;7.90;3.10;;;;;24.70;97344.80;;;;110706;1251;41673;-66
2022/05/25 08:36:25;;;;;;;5.50;2.40;;;;;24.80;97337.60;;;;110596;1253;41146;-68
2022/05/25 08:38:55;;;;;;;6.40;2.30;;;;;25.04;97334.40;;;;110547;1252;41911;-65
2022/05/25 08:41:32;;;;;;;4.70;2.00;;;;;25.50;97340.00;;;;110611;1254;42378;-66
2022/05/25 08:44:02;;;;;;;6.50;2.60;;;;;25.48;97324.40;;;;110580;1253;41810;-70
2022/05/25 08:46:33;;;;;;;8.80;2.30;;;;;25.50;97314.80;;;;110649;1251;41160;-66
2022/05/25 08:49:04;;;;;;;5.90;2.40;;;;;24.60;97303.20;;;;110664;1253;41623;-62
2022/05/25 08:51:43;;;;;;;6.40;2.30;;;;;24.52;97298.60;;;;110551;1253;41160;-61
2022/05/25 08:54:14;;;;;;;8.50;2.30;;;;;24.84;97301.60;;;;110713;1253;41261;-68
2022/05/25 08:56:47;;;;;;;8.50;2.40;;;;;24.52;97304.40;;;;110634;1251;41272;-69
2022/05/25 08:59:25;;;;;;;6.20;2.50;;;;;24.12;97301.60;;;;110613;1253;41558;-69
2022/05/25 09:02:11;;;;;;;5.90;2.50;;;;;24.68;97290.60;;;;110762;1251;41751;-68
2022/05/25 09:04:44;;;;;;;6.10;2.40;;;;;24.94;97288.60;;;;110758;1253;41843;-73
2022/05/25 09:07:23;;;;;;;7.30;2.70;;;;;25.04;97285.60;;;;110768;1253;41177;-67
2022/05/25 09:09:53;;;;;;;7.50;2.50;;;;;24.94;97279.20;;;;110742;1253;41644;-63
2022/05/25 09:12:46;;;;;;;7.40;2.70;;;;;25.70;97285.80;;;;110530;1253;41539;-73
2022/05/25 09:15:23;;;;;;;7.60;3.10;;;;;25.70;97296.00;;;;110640;1253;41176;-70
2022/05/25 09:18:09;;;;;;;8.50;3.10;;;;;25.50;97296.80;;;;110733;1251;41181;-75
2022/05/25 09:20:44;;;;;;;10.30;3.10;;;;;25.40;97301.00;;;;110545;1253;41196;-73
2022/05/25 09:23:14;;;;;;;8.90;2.60;;;;;25.30;97296.40;;;;110516;1253;41263;-63
2022/05/25 09:25:44;;;;;;;8.90;3.20;;;;;26.12;97293.20;;;;110708;1251;41154;-65
2022/05/25 09:28:23;;;;;;;9.60;3.60;;;;;26.40;97293.00;;;;110580;1253;41169;-68
2022/05/25 09:30:54;;;;;;;8.20;3.10;;;;;26.40;97293.00;;;;110377;1253;41188;-61
2022/05/25 09:33:35;;;;;;;6.30;2.90;;;;;26.28;97289.40;;;;110622;1252;41156;-60
2022/05/25 09:36:13;;;;;;;7.10;2.90;;;;;26.22;97291.40;;;;110780;1250;41174;-66
2022/05/25 09:38:56;;;;;;;8.70;3.10;;;;;26.42;97287.00;;;;110784;1252;41150;-62
2022/05/25 09:41:27;;;;;;;9.20;3.00;;;;;27.08;97283.20;;;;110742;1251;41187;-62
2022/05/25 09:43:59;;;;;;;6.60;2.90;;;;;27.82;97281.20;;;;110778;1251;41157;-71
2022/05/25 09:46:37;;;;;;;8.60;3.50;;;;;28.58;97284.00;;;;110593;1253;41162;-63
2022/05/25 09:49:08;;;;;;;7.80;2.80;;;;;28.70;97285.40;;;;110753;1250;41258;-67
2022/05/25 09:51:43;;;;;;;8.00;3.40;;;;;27.86;97279.20;;;;110503;1253;41174;-61
2022/05/25 09:54:19;;;;;;;11.00;3.50;;;;;28.46;97282.60;;;;110667;1252;41158;-61
2022/05/25 09:56:59;;;;;;;8.60;3.00;;;;;28.40;97284.40;;;;110448;1253;41973;-58
2022/05/25 10:00:00;;;;;;;7.50;3.20;;;;;28.30;97283.20;;;;110558;1253;42489;-60
2022/05/25 10:02:43;;;;;;;10.20;3.20;;;;;28.00;97283.40;;;;110651;1253;41558;-66
2022/05/25 10:05:27;;;;;;;10.20;3.50;;;;;27.66;97294.80;;;;110580;1252;41145;-59
2022/05/25 10:08:09;;;;;;;7.80;2.90;;;;;27.50;97291.40;;;;110742;1250;41162;-70
2022/05/25 10:10:55;;;;;;;7.20;3.20;;;;;27.70;97286.60;;;;110743;1252;41156;-68
2022/05/25 10:13:27;;;;;;;6.40;3.00;;;;;27.80;97286.40;;;;110710;1250;41207;-59
2022/05/25 10:15:58;;;;;;;11.80;3.30;;;;;27.58;97292.20;;;;110729;1253;41156;-68
2022/05/25 10:18:42;;;;;;;9.90;2.90;;;;;27.20;97291.20;;;;110808;1250;41264;-59
2022/05/25 10:21:24;;;;;;;11.20;3.30;;;;;27.46;97294.80;;;;110886;1251;41155;-59
2022/05/25 10:23:57;;;;;;;8.40;3.10;;;;;27.40;97295.60;;;;110774;1250;42382;-62
2022/05/25 10:26:33;;;;;;;8.00;2.90;;;;;27.60;97291.80;;;;110687;1253;43120;-67
2022/05/25 10:29:11;;;;;;;8.80;2.90;;;;;27.70;97286.40;;;;110778;1250;41560;-62
2022/05/25 10:37:28;;;;;;;;;;;;;27.98;97279.60;;;;110786;1250;41158;-63
2022/05/25 10:40:01;;;;;;;7.70;3.20;;;;;28.20;97277.60;;;;110813;1250;41309;-64
2022/05/25 10:42:46;;;;;;;8.20;3.00;;;;;28.20;97267.20;;;;110601;1253;41278;-66
2022/05/25 10:45:19;;;;;;;8.80;2.60;;;;;28.36;97272.20;;;;110779;1253;41636;-61
2022/05/25 10:48:18;;;;;;;8.50;3.00;;;;;28.10;97270.20;;;;110783;1252;41954;-67
2022/05/25 10:51:04;;;;;;;9.20;3.40;;;;;28.40;97270.80;;;;110627;1253;41742;-65
2022/05/25 10:56:58;;;;;;;8.60;3.50;;;;;28.90;97261.40;;;;110616;1253;41140;-69
2022/05/25 10:59:54;;;;;;;7.50;3.00;;;;;29.60;97261.00;;;;110760;1251;41584;-70
2022/05/25 11:02:52;;;;;;;8.00;3.30;;;;;30.68;97258.20;;;;110678;1253;41416;-69
2022/05/25 11:05:48;;;;;;;8.10;3.00;;;;;30.96;97268.00;;;;110770;1253;42378;-69
2022/05/25 11:08:35;;;;;;;10.10;3.10;;;;;30.86;97262.80;;;;110861;1250;41614;-67
2022/05/25 11:11:11;;;;;;;8.20;3.30;;;;;30.28;97262.60;;;;110771;1253;41347;-70
2022/05/25 11:13:59;;;;;;;7.60;3.00;;;;;29.50;97260.80;;;;110773;1253;41461;-69
2022/05/25 11:17:16;;;;;;;11.60;2.80;;;;;29.08;97266.40;;;;110728;1250;42353;-70
2022/05/25 11:19:58;;;;;;;8.60;3.10;;;;;28.90;97265.80;;;;110114;1259;41170;-69
2022/05/25 11:23:05;;;;;;;7.50;3.20;;;;;29.18;97264.20;;;;110131;1259;41198;-71
2022/05/25 11:26:00;;;;;;;12.30;3.00;;;;;29.76;97264.20;;;;110052;1260;41175;-62
2022/05/25 11:29:48;;;;;;;6.50;2.60;;;;;29.50;97263.60;;;;109922;1259;41574;-72
2022/05/25 11:32:21;;;;;;;7.20;2.50;;;;;29.80;97257.80;;;;109062;1268;41169;-64
2022/05/25 11:35:08;;;;;;;9.70;3.40;;;;;30.14;97250.60;;;;109097;1266;41653;-66
2022/05/25 11:38:01;;;;;;;8.40;3.10;;;;;30.30;97246.20;;;;108941;1267;41194;-63
2022/05/25 11:40:59;;;;;;;6.80;2.80;;;;;29.88;97238.40;;;;108944;1267;41174;-64
2022/05/25 11:43:43;;;;;;;10.00;3.00;;;;;30.30;97240.40;;;;108954;1267;41457;-59
2022/05/25 11:46:38;;;;;;;7.90;3.00;;;;;30.50;97230.60;;;;108977;1266;42199;-62
2022/05/25 11:49:37;;;;;;;6.80;2.60;;;;;31.46;97219.00;;;;109020;1267;41169;-60
2022/05/25 11:52:25;;;;;;;8.20;2.50;;;;;31.68;97225.00;;;;108993;1267;41186;-59
2022/05/25 11:54:57;;;;;;;6.60;2.70;;;;;32.10;97224.00;;;;108984;1267;41397;-61
2022/05/25 11:57:31;;;;;;;5.90;2.40;;;;;32.48;97218.00;;;;109905;1259;42402;-59
2022/05/25 12:00:09;;;;;;;8.50;2.90;;;;;33.34;97211.80;;;;110127;1259;41720;-63
2022/05/25 12:02:50;;;;;;;7.10;2.60;;;;;34.24;97213.00;;;;110194;1253;41722;-66
2022/05/25 12:05:27;;;;;;;8.30;2.70;;;;;33.98;97214.20;;;;110773;1252;41255;-62
2022/05/25 12:08:16;;;;;;;5.90;2.40;;;;;33.70;97210.60;;;;110746;1254;41727;-60
2022/05/25 12:11:17;;;;;;;5.50;2.40;;;;;33.64;97208.00;;;;110570;1253;41171;-60
2022/05/25 12:14:11;;;;;;;12.10;2.90;;;;;33.54;97211.80;;;;110540;1253;41138;-60
2022/05/25 12:16:44;;;;;;;5.80;2.40;;;;;32.80;97213.00;;;;110789;1253;41210;-67
2022/05/25 12:19:21;;;;;;;7.50;2.70;;;;;31.36;97216.80;;;;110696;1251;41148;-60
2022/05/25 12:21:55;;;;;;;6.50;2.50;;;;;30.96;97217.00;;;;110767;1251;41614;-59
2022/05/25 12:24:30;;;;;;;7.20;2.60;;;;;30.40;97217.40;;;;110620;1252;41155;-65
2022/05/25 12:27:02;;;;;;;8.00;3.00;;;;;29.96;97209.40;;;;110750;1252;42669;-62
2022/05/25 12:29:35;;;;;;;7.70;2.80;;;;;29.58;97205.80;;;;110701;1251;41644;-59
2022/05/25 12:32:06;;;;;;;7.30;2.90;;;;;29.60;97205.20;;;;110775;1252;42421;-59
2022/05/25 12:34:41;;;;;;;8.10;2.90;;;;;29.56;97203.40;;;;110572;1254;41604;-59
2022/05/25 12:37:11;;;;;;;6.60;2.90;;;;;29.60;97204.00;;;;110549;1253;41151;-63
2022/05/25 12:39:47;;;;;;;8.40;3.20;;;;;29.40;97201.20;;;;110706;1253;41161;-60
2022/05/25 12:42:22;;;;;;;8.40;3.10;;;;;29.26;97203.40;;;;110720;1253;42288;-63
2022/05/25 12:50:50;;;;;;;8.80;3.20;;;;;28.60;97204.00;;;;110788;1250;41146;-67
2022/05/25 12:53:20;;;;;;;8.40;2.80;;;;;28.20;97204.80;;;;110756;1251;41225;-62
2022/05/25 12:55:59;;;;;;;8.50;3.50;;;;;28.40;97195.20;;;;110733;1251;41168;-60
2022/05/25 12:58:41;;;;;;;8.20;3.00;;;;;28.20;97196.20;;;;110671;1253;41261;-68
2022/05/25 13:01:14;;;;;;;9.00;3.10;;;;;28.10;97189.20;;;;110643;1253;41269;-61
2022/05/25 13:03:46;;;;;;;7.70;2.90;;;;;27.96;97192.00;;;;110492;1253;41271;-63
2022/05/25 13:06:21;;;;;;;9.10;2.60;;;;;27.80;97190.00;;;;110700;1253;41266;-65
2022/05/25 13:08:55;;;;;;;10.00;3.20;;;;;27.90;97187.00;;;;110571;1254;41617;-68
2022/05/25 13:11:39;;;;;;;9.90;2.90;;;;;28.10;97191.60;;;;110673;1253;41625;-70
2022/05/25 13:14:17;;;;;;;8.40;3.30;;;;;28.18;97192.40;;;;110584;1254;41154;-62
2022/05/25 13:16:48;;;;;;;8.10;2.80;;;;;28.20;97190.00;;;;110614;1251;41147;-70
2022/05/25 13:19:46;;;;;;;7.90;3.00;;;;;28.30;97189.80;;;;110687;1253;41163;-71